Share

Vest, KY (41772)

Carroll (KJKL) Elev 1381 ft | 37.59 °N, 83.31 °W | Change Station

Current weather conditions updated 23 minutes ago

Clear
Clear
55 °F
Feels Like 55 °F
N
5
Wind Variable Wind from SSW
Sunrise 6:49 AM
Sunset 8:13 PM
Moon Waning Gibbous

Today is forecast to be nearly the same temperature as yesterday. A few showers developing late tonight.

Pressure 30.09 in
Visibility 10.0 miles
Clouds Clear
Dew Point 36 °F
Humidity 49%
Rainfall 0.00 in
Snow Depth Not available.
UV 0 out of 16
Pollen 10.40 out of 12
Air Quality Not available.
Flu Activity Sporadic
METAR KJKL 211053Z AUTO 21004KT 10SM CLR 13/02 A3011 RMK AO2 SLP187 T01280022

More Conditions Fewer Conditions

Pressure 30.09 in
Visibility 10.0 miles
Clouds Clear
Dew Point 36 °F
Humidity 49%
Rainfall 0.00 in
Snow Depth Not available.
UV 0 out of 16
Pollen 10.40 out of 12
Air Quality Not available.
Flu Activity Sporadic
METAR KJKL 211053Z AUTO 21004KT 10SM CLR 13/02 A3011 RMK AO2 SLP187 T01280022

More Conditions Fewer Conditions

10-Day Weather Forecast

Almanac

Astronomy

Apr. 21, 2014 Rise Set
Actual Time 6:49 AM EDT 8:13 PM EDT
Civil Twilight 6:22 AM EDT 8:40 PM EDT
Nautical Twilight 5:49 AM EDT 9:13 PM EDT
Astronomical Twilight 5:15 AM EDT 9:47 PM EDT
Moon 1:40 AM EDT 12:16 PM EDT
Length of Visible Light 14h 18m
Length of Day
13h 23m
Tomorrow will be 2m 12s longer.
Waning Gibbous, 60% of the Moon is Illuminated
Today
Waning Gibbous
Apr 22
Last Quarter
Apr 29
New
May 6
First Quarter
May 14
Full

Today's Extremes

State Highs State Lows

Community

  • Snowy Robin
    Snowy Robin
  • Sun Pillar and Geese
    Sun Pillar and Geese
  • Showers on the Way
    Showers on the Way
  • Easter Morning Fog
    Easter Morning Fog
  • Easter Dance
    Easter Dance

WunderPhotos

Upload Photos

1,703,591 photos uploaded!

WunderBlogs® & News

Nearby

Snow Depth

Station Depth Elevation
No new snow has been reported.

Coastal Water Temperatures

Place Temperature
No Stations Reporting

Earthquake Activity

City Distance Mag. Time & Date
No recent earthquake activity has been reported nearby.
Minimum magnitude displayed is 2.5.

Nearby Weather Stations

Station Location Temp. Windchill Dew Point Humidity Wind Precip. Elev Updated Type
RAWS JACKSON CO AP KY, Jackson, KY 55 °F - 37 °F 50% South  at  2 mph 0.00 in / hr 1388 ft 6:15 AM EDT MADIS
Middle Creek VFD Station 2, Prestonsburg, KY 39.6 °F 40 °F 37 °F 91% North  at  0.0 mph - / hr 689 ft 7:02 AM EDT Normal
Talbert, KY 42.6 °F 43 °F 39 °F 86% North  at  0.0 mph 0.00 in / hr 994 ft 7:15 AM EDT Normal
Middle Creek Battlefield Area, Prestonsburg, KY 39.2 °F 39 °F 35 °F 85% North  at  0.0 mph 0.00 in / hr 728 ft 7:15 AM EDT Rapid Fire

Show More Stations Show Fewer Stations

What do you think?

We're not finished. Please let us know what you like, what you don't like, and what you are still missing.